Time;durP1;ratioP1;P1;durP2;ratioP2;P2;SDS_P1;SDS_P2;PMS_P1;PMS_P2;Temp;Humidity;BMP_temperature;BMP_pressure;BME280_temperature;BME280_humidity;BME280_pressure;Samples;Min_cycle;Max_cycle;Signal;HPM_P1;HPM_P2
2024/04/12 00:01:14;;;;;;;48.70;40.90;;;;;;;7.11;100.00;100444.27;109086;1256;66864;-76
2024/04/12 00:03:52;;;;;;;45.80;40.80;;;;;;;7.10;100.00;100446.42;109394;1252;60160;-76
2024/04/12 00:06:20;;;;;;;44.80;39.60;;;;;;;7.09;100.00;100442.73;109536;1251;74014;-76
2024/04/12 00:08:48;;;;;;;43.80;38.80;;;;;;;7.09;100.00;100441.16;109542;1251;60015;-76
2024/04/12 00:11:19;;;;;;;44.80;37.60;;;;;;;7.07;100.00;100443.31;109303;1251;60189;-75
2024/04/12 00:13:47;;;;;;;48.80;38.90;;;;;;;7.06;100.00;100439.27;109487;1251;65410;-75
2024/04/12 00:16:23;;;;;;;46.00;37.60;;;;;;;7.04;100.00;100437.02;109553;1251;59824;-77
2024/04/12 00:19:06;;;;;;;46.10;37.70;;;;;;;7.02;100.00;100436.92;109560;1251;63767;-76
2024/04/12 00:21:41;;;;;;;41.20;35.80;;;;;;;6.99;100.00;100435.60;109524;1251;59797;-76
2024/04/12 00:24:11;;;;;;;38.70;34.50;;;;;;;6.97;100.00;100432.84;109411;1251;59818;-76
2024/04/12 00:26:40;;;;;;;;;;;;;;;6.95;100.00;100432.91;109604;1251;67314;-76
2024/04/12 00:29:08;;;;;;;37.00;31.30;;;;;;;6.92;100.00;100439.15;109608;1251;60139;-76
2024/04/12 00:31:42;;;;;;;40.30;30.70;;;;;;;6.91;100.00;100441.65;109544;1251;62628;-77
2024/04/12 00:34:08;;;;;;;34.30;30.30;;;;;;;6.91;100.00;100441.67;109483;1251;59709;-77
2024/04/12 00:36:34;;;;;;;36.50;30.30;;;;;;;6.92;100.00;100443.59;109550;1251;59825;-77
2024/04/12 00:39:01;;;;;;;33.70;29.50;;;;;;;6.91;100.00;100439.89;109532;1251;59786;-76
2024/04/12 00:41:29;;;;;;;33.00;29.40;;;;;;;6.90;100.00;100444.16;109586;1251;59866;-76
2024/04/12 00:43:55;;;;;;;35.50;30.20;;;;;;;6.88;100.00;100444.74;109552;1251;64044;-77
2024/04/12 00:46:24;;;;;;;37.10;30.90;;;;;;;6.87;100.00;100444.27;109562;1251;59738;-76
2024/04/12 00:48:57;;;;;;;40.60;33.70;;;;;;;6.82;100.00;100443.33;109517;1251;60389;-77
2024/04/12 00:51:27;;;;;;;37.40;32.40;;;;;;;6.77;100.00;100441.88;109551;1251;68329;-76
2024/04/12 00:53:58;;;;;;;36.80;32.80;;;;;;;6.69;100.00;100443.00;109382;1251;59903;-75
2024/04/12 00:56:29;;;;;;;37.30;31.70;;;;;;;6.66;100.00;100441.16;109464;1251;63917;-76
2024/04/12 00:58:56;;;;;;;37.20;31.00;;;;;;;6.64;100.00;100437.67;109541;1251;59892;-76
2024/04/12 01:01:24;;;;;;;38.20;31.60;;;;;;;6.63;100.00;100431.51;109570;1251;60314;-76
2024/04/12 01:03:55;;;;;;;40.70;34.40;;;;;;;6.61;100.00;100430.69;109535;1251;66798;-76
2024/04/12 01:06:29;;;;;;;36.80;31.00;;;;;;;6.59;100.00;100426.84;109551;1251;61062;-76
2024/04/12 01:08:58;;;;;;;34.90;30.00;;;;;;;6.57;100.00;100430.61;109542;1251;64127;-76
2024/04/12 01:11:27;;;;;;;36.30;30.40;;;;;;;6.54;100.00;100440.21;109580;1251;59786;-76
2024/04/12 01:13:54;;;;;;;36.30;31.30;;;;;;;6.51;100.00;100442.60;109169;1251;59964;-75
2024/04/12 01:16:24;;;;;;;36.90;30.30;;;;;;;6.47;100.00;100447.47;109558;1251;66897;-76
2024/04/12 01:18:55;;;;;;;38.20;31.80;;;;;;;6.46;100.00;100451.93;109607;1251;60298;-76
2024/04/12 01:21:25;;;;;;;39.70;31.90;;;;;;;6.44;100.00;100450.56;109522;1251;62520;-76
2024/04/12 01:23:53;;;;;;;37.70;33.80;;;;;;;6.45;100.00;100454.25;109552;1251;60072;-76
2024/04/12 01:26:23;;;;;;;39.70;35.20;;;;;;;6.46;100.00;100454.23;109590;1251;60012;-77
2024/04/12 01:28:51;;;;;;;36.10;32.20;;;;;;;6.46;100.00;100456.51;109519;1251;75632;-76
2024/04/12 01:31:19;;;;;;;38.10;32.40;;;;;;;6.46;100.00;100453.52;109549;1251;60166;-77
2024/04/12 01:33:50;;;;;;;48.80;43.70;;;;;;;6.46;100.00;100454.40;109380;1251;63125;-77
2024/04/12 01:36:23;;;;;;;40.70;36.40;;;;;;;6.45;100.00;100458.65;109588;1251;59778;-76
2024/04/12 01:38:54;;;;;;;35.80;31.70;;;;;;;6.44;100.00;100458.85;109548;1251;60000;-76
2024/04/12 01:41:31;;;;;;;36.30;32.10;;;;;;;6.42;100.00;100458.05;109613;1251;68071;-76
2024/04/12 01:44:06;;;;;;;44.00;36.10;;;;;;;6.40;100.00;100457.38;109494;1251;59918;-76
2024/04/12 01:46:37;;;;;;;39.40;35.20;;;;;;;6.38;100.00;100459.02;109547;1251;63978;-76
2024/04/12 01:49:10;;;;;;;38.10;34.10;;;;;;;6.37;100.00;100458.33;109496;1251;59825;-76
2024/04/12 01:51:37;;;;;;;36.20;32.50;;;;;;;6.36;100.00;100459.96;109570;1251;59855;-75
2024/04/12 01:54:17;;;;;;;35.00;31.40;;;;;;;6.33;100.00;100456.68;109527;1251;66563;-74
2024/04/12 01:56:48;;;;;;;33.40;29.90;;;;;;;6.30;100.00;100457.82;109510;1251;59934;-76
2024/04/12 01:59:16;;;;;;;32.30;28.70;;;;;;;6.27;100.00;100458.25;109523;1251;73849;-74
2024/04/12 02:01:45;;;;;;;34.60;30.20;;;;;;;6.25;100.00;100457.59;109500;1251;60088;-77
2024/04/12 02:04:18;;;;;;;35.60;31.60;;;;;;;6.23;100.00;100455.88;109517;1251;59720;-76
2024/04/12 02:06:45;;;;;;;33.30;29.80;;;;;;;6.22;100.00;100454.15;109589;1251;66838;-76
2024/04/12 02:09:14;;;;;;;33.40;29.50;;;;;;;6.19;100.00;100450.68;109563;1251;59962;-75
2024/04/12 02:11:42;;;;;;;36.00;30.30;;;;;;;6.19;100.00;100450.68;109557;1251;62416;-76
2024/04/12 02:14:10;;;;;;;32.60;29.00;;;;;;;6.19;100.00;100445.93;109513;1251;59782;-75
2024/04/12 02:16:38;;;;;;;33.50;29.70;;;;;;;6.17;100.00;100444.38;109527;1251;59754;-76
2024/04/12 02:19:12;;;;;;;28.40;25.50;;;;;;;6.13;100.00;100443.59;109566;1251;66544;-76
2024/04/12 02:21:40;;;;;;;26.40;23.60;;;;;;;6.09;100.00;100446.70;109391;1251;60156;-76
2024/04/12 02:24:11;;;;;;;29.40;26.30;;;;;;;6.04;100.00;100443.48;109491;1251;72895;-76
2024/04/12 02:26:41;;;;;;;28.50;25.70;;;;;;;6.03;100.00;100445.79;109529;1251;59994;-76
2024/04/12 02:29:08;;;;;;;32.00;28.60;;;;;;;6.03;100.00;100445.80;109414;1251;60125;-76
2024/04/12 02:31:35;;;;;;;32.60;29.00;;;;;;;6.03;100.00;100443.86;109565;1250;66820;-76
2024/04/12 02:34:05;;;;;;;33.40;29.80;;;;;;;6.02;100.00;100444.56;109526;1251;60159;-76
2024/04/12 02:36:31;;;;;;;33.00;28.40;;;;;;;6.03;100.00;100441.91;109523;1250;64098;-76
2024/04/12 02:38:58;;;;;;;36.20;30.20;;;;;;;6.04;100.00;100444.18;109562;1251;59749;-75
2024/04/12 02:41:28;;;;;;;32.90;29.60;;;;;;;6.05;100.00;100442.89;109539;1251;59836;-75
2024/04/12 02:43:56;;;;;;;33.90;28.70;;;;;;;6.07;100.00;100442.86;109543;1251;66614;-77
2024/04/12 02:46:24;;;;;;;35.80;29.70;;;;;;;6.08;100.00;100447.27;109608;1251;59869;-78
2024/04/12 02:48:51;;;;;;;30.80;26.40;;;;;;;6.08;100.00;100449.02;109543;1251;62873;-77
2024/04/12 02:51:18;;;;;;;33.60;28.60;;;;;;;6.09;100.00;100452.36;109547;1251;59846;-78
2024/04/12 02:53:47;;;;;;;32.10;28.30;;;;;;;6.10;100.00;100453.92;109548;1251;60726;-78
2024/04/12 02:56:15;;;;;;;33.30;27.50;;;;;;;6.10;100.00;100457.08;109553;1250;65723;-78
2024/04/12 02:58:44;;;;;;;32.90;27.90;;;;;;;6.10;100.00;100459.02;109563;1251;59989;-75
2024/04/12 03:01:16;;;;;;;34.40;28.20;;;;;;;6.10;100.00;100460.96;109568;1251;62990;-77
2024/04/12 03:03:47;;;;;;;32.80;28.90;;;;;;;6.11;100.00;100460.06;109439;1251;60091;-78
2024/04/12 03:06:17;;;;;;;33.30;27.30;;;;;;;6.12;100.00;100466.92;109544;1251;59787;-77
2024/04/12 03:08:47;;;;;;;31.40;27.10;;;;;;;6.11;100.00;100463.42;109558;1251;66845;-78
2024/04/12 03:11:20;;;;;;;30.60;27.30;;;;;;;6.10;100.00;100462.89;109535;1251;60152;-76
2024/04/12 03:14:20;;;;;;;32.60;29.00;;;;;;;6.12;100.00;100462.70;109510;1251;63767;-79
2024/04/12 03:16:47;;;;;;;29.90;26.70;;;;;;;6.11;100.00;100463.77;108890;1259;59885;-78
2024/04/12 03:19:14;;;;;;;32.20;26.10;;;;;;;6.10;100.00;100456.55;108911;1259;59778;-75
2024/04/12 03:21:41;;;;;;;28.40;25.40;;;;;;;6.07;100.00;100453.80;108905;1259;65639;-78
2024/04/12 03:24:11;;;;;;;28.00;24.90;;;;;;;6.04;100.00;100461.98;108823;1259;68796;-78
2024/04/12 03:26:37;;;;;;;35.70;27.60;;;;;;;6.03;100.00;100461.33;108877;1259;62715;-75
2024/04/12 03:29:05;;;;;;;31.00;26.80;;;;;;;6.00;100.00;100461.21;108891;1259;59811;-77
2024/04/12 03:31:38;;;;;;;29.60;25.20;;;;;;;5.98;100.00;100461.09;108907;1259;59861;-77
2024/04/12 03:34:08;;;;;;;26.60;23.80;;;;;;;5.93;100.00;100461.00;108867;1259;65339;-78
2024/04/12 03:41:44;;;;;;;32.80;26.20;;;;;;;5.83;100.00;100459.63;108901;1259;59904;-76
2024/04/12 03:44:11;;;;;;;27.60;24.50;;;;;;;5.81;100.00;100458.80;108927;1259;59936;-77
2024/04/12 03:46:40;;;;;;;27.70;24.10;;;;;;;5.79;100.00;100457.10;108935;1259;66816;-77
2024/04/12 03:49:09;;;;;;;34.00;26.70;;;;;;;5.77;100.00;100463.70;108962;1259;59754;-78
2024/04/12 03:51:44;;;;;;;28.90;24.20;;;;;;;5.75;100.00;100470.08;108945;1259;62881;-75
2024/04/12 03:54:17;;;;;;;26.20;23.40;;;;;;;5.73;100.00;100468.34;109381;1251;59984;-77
2024/04/12 03:56:49;;;;;;;29.80;24.20;;;;;;;5.74;100.00;100471.15;109661;1251;59835;-77
2024/04/12 03:59:16;;;;;;;29.70;26.50;;;;;;;5.75;100.00;100472.36;109622;1251;66642;-77
2024/04/12 04:01:44;;;;;;;29.90;25.80;;;;;;;5.76;100.00;100471.11;109425;1251;60160;-77
2024/04/12 04:04:25;;;;;;;35.20;29.30;;;;;;;5.78;100.00;100475.11;109615;1251;62852;-76
2024/04/12 04:06:57;;;;;;;33.60;28.90;;;;;;;5.81;100.00;100475.75;109533;1251;59811;-77
2024/04/12 04:09:25;;;;;;;34.60;28.10;;;;;;;5.85;100.00;100476.71;109678;1251;59957;-75
2024/04/12 04:11:53;;;;;;;32.30;28.90;;;;;;;5.89;100.00;100474.67;109632;1251;66615;-75
2024/04/12 04:14:27;;;;;;;32.90;28.80;;;;;;;5.95;100.00;100472.79;109629;1251;60099;-76
2024/04/12 04:16:56;;;;;;;30.00;26.70;;;;;;;6.06;100.00;100474.66;109763;1251;63813;-75
2024/04/12 04:19:31;;;;;;;33.50;28.70;;;;;;;6.23;100.00;100469.48;109749;1251;59750;-75
2024/04/12 04:22:04;;;;;;;32.10;26.20;;;;;;;6.41;100.00;100472.90;109669;1251;59265;-77
2024/04/12 04:24:34;;;;;;;32.60;28.30;;;;;;;6.51;100.00;100475.45;109668;1251;66527;-76
2024/04/12 04:27:08;;;;;;;33.30;29.10;;;;;;;6.77;100.00;100472.97;109575;1251;60794;-76
2024/04/12 04:29:35;;;;;;;31.10;25.30;;;;;;;7.26;100.00;100470.68;109616;1250;63772;-76
2024/04/12 04:32:03;;;;;;;31.30;27.00;;;;;;;7.69;100.00;100474.33;109689;1251;59723;-74
2024/04/12 04:34:30;;;;;;;30.50;25.80;;;;;;;8.07;100.00;100474.20;109693;1251;59984;-75
2024/04/12 04:36:57;;;;;;;28.10;24.20;;;;;;;8.42;100.00;100467.88;109596;1251;59842;-76
2024/04/12 04:39:24;;;;;;;28.10;25.00;;;;;;;8.86;100.00;100472.20;109623;1251;60372;-76
2024/04/12 04:41:58;;;;;;;29.40;26.10;;;;;;;9.31;100.00;100475.11;109589;1251;62809;-76
2024/04/12 04:44:24;;;;;;;30.10;22.50;;;;;;;9.80;100.00;100470.17;109674;1251;60102;-75
2024/04/12 04:46:53;;;;;;;25.50;22.80;;;;;;;10.21;100.00;100471.92;109643;1251;59977;-76
2024/04/12 04:49:23;;;;;;;25.80;22.20;;;;;;;10.49;100.00;100472.36;109637;1251;65772;-79
2024/04/12 04:51:50;;;;;;;26.30;23.60;;;;;;;10.63;100.00;100470.35;109718;1251;60185;-78
2024/04/12 04:54:21;;;;;;;27.50;23.90;;;;;;;10.81;100.00;100470.10;109724;1251;62658;-76
2024/04/12 04:56:48;;;;;;;27.50;24.30;;;;;;;10.98;100.00;100474.83;109697;1251;59397;-77
2024/04/12 04:59:17;;;;;;;26.50;23.60;;;;;;;11.21;100.00;100478.06;109736;1251;59768;-77
2024/04/12 05:01:48;;;;;;;31.10;24.70;;;;;;;11.55;100.00;100480.58;109687;1251;66645;-77
2024/04/12 05:04:22;;;;;;;26.00;23.20;;;;;;;11.88;100.00;100478.11;109717;1251;61367;-76
2024/04/12 05:06:50;;;;;;;23.30;21.00;;;;;;;12.24;100.00;100477.77;109772;1251;64104;-79
2024/04/12 05:09:21;;;;;;;24.30;21.60;;;;;;;12.54;100.00;100475.73;109745;1251;59953;-77
2024/04/12 05:11:52;;;;;;;24.10;21.30;;;;;;;12.82;100.00;100476.93;109522;1251;59694;-75
2024/04/12 05:17:06;;;;;;;24.90;20.00;;;;;;;13.40;100.00;100478.36;109593;1251;60256;-78
2024/04/12 05:19:39;;;;;;;24.40;21.50;;;;;;;13.59;100.00;100476.76;109552;1251;64040;-76
2024/04/12 05:22:20;;;;;;;23.50;21.00;;;;;;;13.92;100.00;100472.19;109487;1251;59844;-79
2024/04/12 05:24:46;;;;;;;;;;;;;;;14.20;100.00;100472.04;109562;1251;59672;-78
2024/04/12 05:27:12;;;;;;;24.70;21.80;;;;;;;14.34;100.00;100473.54;109557;1251;59845;-76
2024/04/12 05:29:40;;;;;;;22.90;20.50;;;;;;;14.39;100.00;100474.85;109597;1251;59908;-78
2024/04/12 05:32:07;;;;;;;24.50;21.50;;;;;;;14.46;100.00;100476.02;109501;1251;64120;-77
2024/04/12 05:34:34;;;;;;;26.40;21.50;;;;;;;14.54;100.00;100471.11;109539;1251;59650;-78
2024/04/12 05:37:04;;;;;;;23.70;20.00;;;;;;;14.65;100.00;100473.85;109543;1251;59755;-77
2024/04/12 05:39:35;;;;;;;27.80;21.30;;;;;;;14.74;100.00;100474.04;109401;1251;66986;-77
2024/04/12 05:42:05;;;;;;;21.60;19.40;;;;;;;14.86;100.00;100470.30;109570;1251;60187;-77
2024/04/12 05:44:35;;;;;;;22.40;20.10;;;;;;;15.01;100.00;100471.30;109280;1251;63887;-78
2024/04/12 05:47:05;;;;;;;22.50;20.10;;;;;;;15.24;100.00;100469.17;109549;1251;59987;-77
2024/04/12 05:49:33;;;;;;;22.60;20.20;;;;;;;15.38;100.00;100470.45;109512;1251;59761;-78
2024/04/12 05:52:03;;;;;;;22.10;19.40;;;;;;;15.38;100.00;100472.58;109504;1251;67331;-77
2024/04/12 05:54:39;;;;;;;;;;;;;;;15.61;100.00;100469.52;109374;1251;70107;-77
2024/04/12 05:57:11;;;;;;;22.50;19.00;;;;;;;15.72;100.00;100466.90;109544;1251;62618;-77
2024/04/12 05:59:42;;;;;;;22.50;19.30;;;;;;;15.73;100.00;100464.66;109486;1254;59831;-78
2024/04/12 06:02:15;;;;;;;23.20;18.10;;;;;;;15.75;100.00;100460.61;109537;1251;59762;-78
2024/04/12 06:04:47;;;;;;;25.30;19.10;;;;;;;15.83;100.00;100462.38;109542;1251;66614;-78
2024/04/12 06:07:14;;;;;;;19.70;17.70;;;;;;;15.94;100.00;100456.81;109463;1251;59897;-77
2024/04/12 06:09:40;;;;;;;19.60;16.90;;;;;;;15.99;100.00;100455.77;109520;1251;59940;-78
2024/04/12 06:12:07;;;;;;;21.00;16.90;;;;;;;16.11;100.00;100451.57;109345;1251;59916;-78
2024/04/12 06:14:38;;;;;;;20.70;16.20;;;;;;;16.13;100.00;100442.68;109302;1254;59847;-78
2024/04/12 06:17:08;;;;;;;20.30;15.40;;;;;;;16.19;100.00;100436.85;109329;1254;67409;-78
2024/04/12 06:19:37;;;;;;;17.20;15.30;;;;;;;16.32;100.00;100428.30;109335;1254;59904;-80
2024/04/12 06:22:13;;;;;;;16.90;15.10;;;;;;;16.44;100.00;100428.58;109294;1254;64107;-78
2024/04/12 06:24:48;;;;;;;16.40;14.60;;;;;;;16.57;100.00;100430.17;109276;1254;59825;-77
2024/04/12 06:27:33;;;;;;;17.70;14.10;;;;;;;16.61;100.00;100427.77;109304;1254;59815;-78
2024/04/12 06:29:59;;;;;;;16.10;14.50;;;;;;;16.64;100.00;100430.05;109257;1254;67962;-76
2024/04/12 06:32:27;;;;;;;15.50;13.90;;;;;;;16.59;100.00;100429.83;109325;1254;60858;-78
2024/04/12 06:34:54;;;;;;;16.70;14.40;;;;;;;16.41;100.00;100428.02;109326;1254;62499;-78
2024/04/12 06:37:21;;;;;;;16.50;14.60;;;;;;;16.24;100.00;100426.70;109281;1254;59894;-78
2024/04/12 06:39:48;;;;;;;17.00;14.30;;;;;;;16.21;100.00;100423.84;109297;1254;59939;-77
2024/04/12 06:42:15;;;;;;;18.30;13.90;;;;;;;16.21;100.00;100419.15;109304;1254;66920;-77
2024/04/12 06:44:48;;;;;;;16.90;15.10;;;;;;;16.16;100.00;100419.35;109298;1254;59855;-78
2024/04/12 06:47:18;;;;;;;16.40;14.70;;;;;;;15.93;100.00;100416.61;109532;1251;63742;-78
2024/04/12 06:49:44;;;;;;;17.00;14.40;;;;;;;15.74;100.00;100419.08;109544;1251;59940;-78
2024/04/12 06:52:23;;;;;;;17.00;15.00;;;;;;;15.66;100.00;100422.09;109581;1251;59652;-78
2024/04/12 06:54:50;;;;;;;17.50;14.70;;;;;;;15.45;100.00;100422.20;109511;1252;66627;-77
2024/04/12 06:57:18;;;;;;;14.80;13.30;;;;;;;15.24;100.00;100424.60;109619;1251;59811;-78
2024/04/12 06:59:53;;;;;;;16.50;14.60;;;;;;;15.17;100.00;100423.61;109495;1251;62557;-77
2024/04/12 07:02:24;;;;;;;16.10;13.60;;;;;;;15.17;100.00;100425.20;109528;1251;60039;-78
2024/04/12 07:05:05;;;;;;;21.90;14.90;;;;;;;15.17;100.00;100431.66;109496;1251;60107;-78
2024/04/12 07:07:32;;;;;;;22.60;15.70;;;;;;;15.23;100.00;100436.45;109553;1251;66707;-78
2024/04/12 07:09:59;;;;;;;15.90;13.90;;;;;;;15.27;100.00;100437.45;109527;1251;60442;-78
2024/04/12 07:12:31;;;;;;;18.80;16.00;;;;;;;15.22;100.00;100441.75;109538;1251;59836;-78
2024/04/12 07:14:57;;;;;;;19.50;15.40;;;;;;;15.10;100.00;100445.36;109498;1251;59830;-78
2024/04/12 07:17:25;;;;;;;18.40;16.30;;;;;;;15.04;100.00;100443.05;109537;1251;59861;-77
2024/04/12 07:19:54;;;;;;;22.50;17.50;;;;;;;15.06;100.00;100442.77;109522;1251;65315;-77
2024/04/12 07:22:23;;;;;;;19.40;16.00;;;;;;;15.16;100.00;100441.23;109554;1251;60171;-78
2024/04/12 07:24:50;;;;;;;20.70;17.10;;;;;;;15.33;100.00;100438.56;109568;1251;64189;-77
2024/04/12 07:27:18;;;;;;;16.70;13.30;;;;;;;15.49;100.00;100442.15;109495;1251;59750;-76
2024/04/12 07:29:46;;;;;;;20.00;15.20;;;;;;;15.54;100.00;100442.54;109611;1251;59851;-78
2024/04/12 07:32:14;;;;;;;19.30;17.00;;;;;;;15.47;100.00;100445.33;109554;1251;65223;-79
2024/04/12 07:34:51;;;;;;;17.70;12.10;;;;;;;15.41;100.00;100443.02;109568;1251;61071;-78
2024/04/12 07:37:28;;;;;;;13.70;10.70;;;;;;;15.42;100.00;100440.10;109550;1251;63845;-77
2024/04/12 07:40:15;;;;;;;14.40;10.10;;;;;;;15.40;100.00;100441.48;109486;1251;59744;-78
2024/04/12 07:42:48;;;;;;;19.00;12.70;;;;;;;15.52;100.00;100437.88;109559;1251;59727;-77
2024/04/12 07:45:25;;;;;;;15.10;11.00;;;;;;;15.57;100.00;100442.91;109535;1251;68117;-78
2024/04/12 07:47:53;;;;;;;12.30;10.20;;;;;;;15.63;100.00;100442.17;109508;1251;60240;-75
2024/04/12 07:50:31;;;;;;;11.70;10.50;;;;;;;15.71;100.00;100439.48;109531;1251;64117;-78
2024/04/12 07:52:58;;;;;;;13.50;10.40;;;;;;;15.74;100.00;100438.93;109503;1251;59846;-77
2024/04/12 07:55:25;;;;;;;13.20;10.50;;;;;;;15.78;100.00;100437.08;109584;1251;60821;-78
2024/04/12 07:58:00;;;;;;;13.50;10.80;;;;;;;15.78;100.00;100437.30;109346;1251;59870;-76
2024/04/12 08:00:36;;;;;;;12.40;10.90;;;;;;;15.81;100.00;100436.04;109561;1251;59769;-76
2024/04/12 08:03:06;;;;;;;9.40;7.70;;;;;;;15.82;100.00;100437.19;109496;1251;62692;-77
2024/04/12 08:05:48;;;;;;;13.30;11.20;;;;;;;15.83;100.00;100437.47;109509;1254;59884;-77
2024/04/12 08:08:15;;;;;;;10.60;9.40;;;;;;;15.90;100.00;100438.11;109598;1251;59794;-73
2024/04/12 08:10:42;;;;;;;12.80;8.90;;;;;;;16.09;100.00;100439.39;109529;1251;65717;-74
2024/04/12 08:13:23;;;;;;;13.30;10.30;;;;;;;16.34;100.00;100437.49;109515;1254;59781;-74
2024/04/12 08:15:51;;;;;;;10.70;9.10;;;;;;;16.70;100.00;100439.31;109527;1251;73788;-74
2024/04/12 08:18:20;;;;;;;12.80;10.50;;;;;;;17.04;100.00;100437.52;109542;1251;60054;-73
2024/04/12 08:20:46;;;;;;;17.00;11.90;;;;;;;17.31;100.00;100430.91;109584;1251;59809;-73
2024/04/12 08:23:17;;;;;;;12.60;10.30;;;;;;;17.70;100.00;100428.23;109540;1251;59732;-74
2024/04/12 08:25:48;;;;;;;12.40;9.20;;;;;;;18.04;100.00;100420.89;109427;1251;161010;-73
2024/04/12 08:28:16;;;;;;;14.60;10.00;;;;;;;18.36;100.00;100420.99;109537;1252;65316;-72
2024/04/12 08:30:51;;;;;;;11.30;10.10;;;;;;;18.65;100.00;100414.45;109390;1251;60186;-74
2024/04/12 08:33:24;;;;;;;11.10;8.50;;;;;;;18.92;99.98;100412.55;109553;1252;59754;-72
2024/04/12 08:35:55;;;;;;;14.00;8.60;;;;;;;19.11;99.45;100414.11;109561;1251;65287;-72
2024/04/12 08:38:22;;;;;;;8.00;7.10;;;;;;;19.20;95.86;100410.85;109596;1251;59852;-73
2024/04/12 08:40:52;;;;;;;9.30;8.00;;;;;;;19.11;93.74;100408.52;109512;1251;63718;-73
2024/04/12 08:43:19;;;;;;;10.10;6.90;;;;;;;18.91;92.05;100405.63;109539;1255;59774;-72
2024/04/12 08:45:48;;;;;;;13.20;7.40;;;;;;;18.75;92.48;100402.34;109560;1251;59741;-72
2024/04/12 08:48:16;;;;;;;11.90;7.90;;;;;;;18.57;89.66;100402.62;109557;1251;65655;-72
2024/04/12 08:50:48;;;;;;;11.00;7.30;;;;;;;18.41;92.36;100399.90;109519;1256;59830;-72
2024/04/12 08:53:21;;;;;;;8.30;6.60;;;;;;;18.37;92.96;100398.43;109540;1251;64549;-72
2024/04/12 08:55:47;;;;;;;9.50;7.00;;;;;;;18.38;92.82;100396.75;109545;1251;60210;-73
2024/04/12 08:58:20;;;;;;;8.70;6.40;;;;;;;18.35;92.32;100396.04;109513;1255;59830;-73
2024/04/12 09:00:51;;;;;;;9.70;5.90;;;;;;;18.37;92.58;100396.23;109556;1251;66520;-73
2024/04/12 09:03:32;;;;;;;8.50;6.20;;;;;;;18.42;91.82;100396.08;109519;1251;61034;-71
2024/04/12 09:05:59;;;;;;;6.10;4.90;;;;;;;18.50;90.86;100395.83;109495;1255;65070;-71
2024/04/12 09:08:28;;;;;;;5.80;4.40;;;;;;;18.47;85.75;100403.27;109547;1251;59669;-71
2024/04/12 09:11:05;;;;;;;11.40;5.40;;;;;;;18.43;86.23;100397.45;109535;1251;60223;-72
2024/04/12 09:13:34;;;;;;;6.70;4.30;;;;;;;18.45;83.68;100396.56;109534;1251;65913;-71
2024/04/12 09:16:06;;;;;;;8.60;4.50;;;;;;;18.34;81.60;100396.66;109533;1251;60033;-72
2024/04/12 09:18:43;;;;;;;6.50;4.70;;;;;;;18.33;79.70;100394.26;109513;1251;62911;-72
2024/04/12 09:21:14;;;;;;;5.60;2.90;;;;;;;18.31;78.63;100387.58;109510;1255;59805;-72
2024/04/12 09:23:44;;;;;;;6.50;3.30;;;;;;;18.30;77.85;100386.36;109566;1251;59860;-71
2024/04/12 09:26:22;;;;;;;6.30;4.00;;;;;;;18.33;76.26;100385.10;109537;1251;67947;-72
2024/04/12 09:28:50;;;;;;;6.90;4.60;;;;;;;18.33;77.69;100380.39;109380;1251;60948;-71
2024/04/12 09:37:02;;;;;;;4.10;2.90;;;;;;;18.83;76.85;100372.20;109540;1255;59756;-72
2024/04/12 09:40:04;;;;;;;6.80;2.60;;;;;;;18.85;75.48;100370.56;109537;1251;66189;-72
2024/04/12 09:42:19;;;;;;;6.70;4.00;;;;;;;18.91;75.53;100372.85;109557;1251;59833;-73
2024/04/12 09:44:48;;;;;;;6.90;3.30;;;;;;;18.97;75.11;100373.41;109550;1251;64071;-73
2024/04/12 10:37:36;;;;;;;5.80;3.50;;;;;;;20.03;67.56;100305.93;109484;1253;60765;-72
2024/04/12 10:40:09;;;;;;;5.30;3.60;;;;;;;19.86;67.07;100302.44;109488;1252;63041;-73
2024/04/12 10:42:38;;;;;;;7.30;3.80;;;;;;;19.87;68.63;100304.18;109506;1253;59782;-72
2024/04/12 10:45:08;;;;;;;5.10;3.80;;;;;;;19.94;68.61;100296.73;109504;1253;60257;-73
2024/04/12 10:47:39;;;;;;;4.10;3.60;;;;;;;20.06;68.50;100293.04;109516;1252;68334;-73
2024/04/12 10:50:07;;;;;;;9.90;4.30;;;;;;;20.12;67.43;100289.81;109490;1254;59872;-72
2024/04/12 10:52:33;;;;;;;31.40;9.10;;;;;;;20.10;66.72;100289.44;109444;1253;64218;-73
2024/04/12 10:55:08;;;;;;;4.10;3.80;;;;;;;20.14;67.59;100285.13;109486;1252;59859;-73
2024/04/12 10:57:42;;;;;;;7.30;3.80;;;;;;;20.31;69.00;100280.41;109450;1253;59829;-72
2024/04/12 11:00:14;;;;;;;7.20;3.50;;;;;;;20.36;67.01;100276.88;109505;1252;65604;-72
2024/04/12 11:02:43;;;;;;;5.20;3.80;;;;;;;20.40;68.42;100269.71;109193;1254;59967;-72
2024/04/12 11:07:50;;;;;;;5.70;3.50;;;;;;;20.58;69.35;100271.71;109483;1253;59804;-73
2024/04/12 11:10:38;;;;;;;7.80;4.10;;;;;;;20.64;68.60;100266.87;109489;1254;59745;-73
2024/04/12 11:13:16;;;;;;;9.00;3.80;;;;;;;20.65;69.59;100265.34;109495;1252;67022;-72
2024/04/12 11:32:14;;;;;;;4.70;3.60;;;;;;;20.60;66.39;100254.77;109472;1252;62603;-72
2024/04/12 11:34:42;;;;;;;6.30;3.30;;;;;;;20.64;65.54;100252.81;109476;1254;59795;-73
2024/04/12 11:37:09;;;;;;;5.90;3.80;;;;;;;20.66;66.01;100249.73;109484;1254;59814;-72
2024/04/12 11:39:37;;;;;;;5.70;3.20;;;;;;;20.73;66.37;100246.79;109526;1253;65447;-72
2024/04/12 11:42:05;;;;;;;8.50;4.40;;;;;;;20.80;67.43;100242.47;109472;1253;59942;-72
2024/04/12 11:44:33;;;;;;;8.20;3.80;;;;;;;20.98;68.00;100238.20;109430;1253;62791;-72
2024/04/12 11:47:05;;;;;;;8.10;3.10;;;;;;;21.05;65.68;100235.23;109425;1253;60115;-72
2024/04/12 11:49:45;;;;;;;4.70;3.10;;;;;;;21.01;64.68;100231.63;109467;1253;59980;-72
2024/04/12 11:52:16;;;;;;;8.10;3.30;;;;;;;21.01;64.28;100228.14;109459;1252;65799;-72
2024/04/12 11:54:58;;;;;;;4.30;2.90;;;;;;;21.02;63.91;100224.98;109485;1252;59972;-73
2024/04/12 11:57:30;;;;;;;5.70;3.30;;;;;;;21.08;65.17;100221.42;109483;1252;64035;-73
2024/04/12 11:59:59;;;;;;;22.50;6.40;;;;;;;21.15;65.47;100218.60;109477;1254;59898;-73
2024/04/12 12:02:28;;;;;;;16.80;5.30;;;;;;;21.22;66.12;100213.55;109492;1253;59834;-73
2024/04/12 12:04:56;;;;;;;24.60;7.10;;;;;;;21.33;66.41;100211.34;109468;1254;66771;-73
2024/04/12 12:07:23;;;;;;;7.10;3.60;;;;;;;21.38;65.83;100206.33;109461;1253;59960;-72
2024/04/12 12:09:49;;;;;;;13.40;5.50;;;;;;;21.44;65.35;100202.73;109445;1252;62847;-72
2024/04/12 12:12:21;;;;;;;11.40;3.10;;;;;;;21.53;65.52;100193.39;109413;1253;59880;-72
2024/04/12 12:14:51;;;;;;;9.90;4.00;;;;;;;21.55;64.37;100195.52;109508;1254;60166;-73
2024/04/12 12:17:19;;;;;;;7.00;3.10;;;;;;;21.55;64.69;100188.47;109438;1253;65768;-73
2024/04/12 12:19:50;;;;;;;8.60;4.10;;;;;;;21.62;64.87;100181.88;109497;1252;60040;-73
2024/04/12 12:22:18;;;;;;;8.00;3.80;;;;;;;21.66;63.29;100179.33;109430;1253;64081;-73
2024/04/12 12:24:45;;;;;;;6.30;3.40;;;;;;;21.60;62.72;100177.02;109452;1252;59953;-73
2024/04/12 12:27:12;;;;;;;6.30;4.10;;;;;;;21.57;63.06;100178.55;109498;1252;59777;-73
2024/04/12 12:29:42;;;;;;;9.00;4.40;;;;;;;21.59;62.64;100173.09;109464;1254;65594;-73
2024/04/12 12:32:08;;;;;;;6.30;4.00;;;;;;;21.62;62.09;100166.89;109439;1253;69774;-73
2024/04/12 12:34:36;;;;;;;9.20;3.60;;;;;;;21.66;62.55;100163.05;109459;1253;62467;-73
2024/04/12 12:37:04;;;;;;;6.00;3.30;;;;;;;21.78;63.42;100160.26;109511;1253;59871;-73
2024/04/12 12:39:31;;;;;;;9.10;3.90;;;;;;;21.87;63.01;100155.83;109512;1252;59807;-73
2024/04/12 12:41:58;;;;;;;7.60;3.70;;;;;;;21.81;63.34;100153.14;109513;1252;67238;-73